UAL132 PTKK-PGUM
Flight info
| Callsign | UAL132 |
|---|---|
| Flight time | 1h 25m |
| Altitude | 36000 |
| Route | WUMVE GUNSS |
| Aircraft | B738/M-SDE2E3FGHIRWXY/LB1 |
Departure
| Time | 2026-04-23 23:24 |
|---|---|
| Airport | Chuuk International Airport (PTKK) |
Arrival
| Time | 2026-04-24 00:49 |
|---|---|
| Airport | Antonio B. Won Pat International Airport (PGUM) |
| Time | Latitude | Longitude | Altitude | Speed | Heading |
|---|---|---|---|---|---|
| 2026-04-23 23:00 | 7.45833 | 151.84144 | 18 ft | 0 kts | 227° |
| 2026-04-23 23:21 | 7.45831 | 151.84135 | 18 ft | 7 kts | 258° |
| 2026-04-23 23:21 | 7.45871 | 151.84060 | 19 ft | 16 kts | 316° |
| 2026-04-23 23:22 | 7.45861 | 151.83957 | 19 ft | 18 kts | 221° |
| 2026-04-23 23:22 | 7.45775 | 151.83868 | 18 ft | 17 kts | 227° |
| 2026-04-23 23:22 | 7.45694 | 151.83781 | 20 ft | 17 kts | 223° |
| 2026-04-23 23:22 | 7.45615 | 151.83723 | 17 ft | 9 kts | 285° |
| 2026-04-23 23:23 | 7.45631 | 151.83719 | 17 ft | 5 kts | 17° |
| 2026-04-23 23:23 | 7.45701 | 151.83789 | 18 ft | 26 kts | 46° |
| 2026-04-23 23:23 | 7.45991 | 151.84086 | 19 ft | 103 kts | 46° |
| 2026-04-23 23:23 | 7.46672 | 151.84790 | 181 ft | 165 kts | 45° |
| 2026-04-23 23:24 | 7.47507 | 151.85636 | 1193 ft | 171 kts | 46° |
| 2026-04-23 23:24 | 7.48352 | 151.86430 | 2336 ft | 169 kts | 46° |
| 2026-04-23 23:24 | 7.49371 | 151.87211 | 2821 ft | 205 kts | 27° |
| 2026-04-23 23:24 | 7.50888 | 151.87386 | 3229 ft | 237 kts | 353° |
| 2026-04-23 23:25 | 7.52480 | 151.86654 | 3664 ft | 271 kts | 323° |
| 2026-04-23 23:25 | 7.53658 | 151.85106 | 4488 ft | 287 kts | 300° |
| 2026-04-23 23:25 | 7.54519 | 151.83277 | 5507 ft | 290 kts | 296° |
| 2026-04-23 23:25 | 7.55338 | 151.81419 | 6503 ft | 292 kts | 296° |
| 2026-04-23 23:26 | 7.56164 | 151.79527 | 7376 ft | 298 kts | 296° |
| 2026-04-23 23:26 | 7.57006 | 151.77607 | 8299 ft | 300 kts | 296° |
| 2026-04-23 23:26 | 7.57808 | 151.75656 | 9220 ft | 304 kts | 289° |
| 2026-04-23 23:26 | 7.58432 | 151.73604 | 10074 ft | 309 kts | 290° |
| 2026-04-23 23:27 | 7.59246 | 151.71543 | 10515 ft | 328 kts | 296° |
| 2026-04-23 23:27 | 7.60363 | 151.69434 | 10704 ft | 353 kts | 302° |
| 2026-04-23 23:27 | 7.61737 | 151.67318 | 11159 ft | 366 kts | 307° |
| 2026-04-23 23:27 | 7.63263 | 151.65239 | 11840 ft | 371 kts | 309° |
| 2026-04-23 23:28 | 7.64869 | 151.63199 | 12586 ft | 373 kts | 311° |
| 2026-04-23 23:28 | 7.66529 | 151.61166 | 13334 ft | 377 kts | 311° |
| 2026-04-23 23:28 | 7.68217 | 151.59131 | 14013 ft | 380 kts | 311° |
| 2026-04-23 23:28 | 7.69930 | 151.57078 | 14641 ft | 384 kts | 311° |
| 2026-04-23 23:29 | 7.71657 | 151.55009 | 15252 ft | 388 kts | 312° |
| 2026-04-23 23:29 | 7.73407 | 151.52908 | 15794 ft | 394 kts | 312° |
| 2026-04-23 23:29 | 7.75181 | 151.50778 | 16386 ft | 398 kts | 311° |
| 2026-04-23 23:29 | 7.76960 | 151.48638 | 17064 ft | 400 kts | 311° |
| 2026-04-23 23:30 | 7.78759 | 151.46473 | 17596 ft | 406 kts | 311° |
| 2026-04-23 23:30 | 7.80607 | 151.44301 | 18148 ft | 410 kts | 313° |
| 2026-04-23 23:30 | 7.82503 | 151.42132 | 18686 ft | 412 kts | 313° |
| 2026-04-23 23:30 | 7.84404 | 151.39979 | 19317 ft | 411 kts | 313° |
| 2026-04-23 23:31 | 7.86318 | 151.37815 | 19818 ft | 415 kts | 313° |
| 2026-04-23 23:31 | 7.88216 | 151.35666 | 20284 ft | 419 kts | 313° |
| 2026-04-23 23:31 | 7.90169 | 151.33450 | 20644 ft | 426 kts | 313° |
| 2026-04-23 23:31 | 7.92144 | 151.31205 | 21089 ft | 430 kts | 313° |
| 2026-04-23 23:32 | 7.94134 | 151.28940 | 21591 ft | 432 kts | 312° |
| 2026-04-23 23:32 | 7.96115 | 151.26680 | 22271 ft | 428 kts | 312° |
| 2026-04-23 23:32 | 7.98092 | 151.24424 | 22782 ft | 431 kts | 312° |
| 2026-04-23 23:32 | 8.00085 | 151.22149 | 23200 ft | 434 kts | 312° |
| 2026-04-23 23:33 | 8.02090 | 151.19859 | 23615 ft | 437 kts | 312° |
| 2026-04-23 23:33 | 8.04106 | 151.17557 | 23982 ft | 439 kts | 312° |
| 2026-04-23 23:33 | 8.06133 | 151.15241 | 24361 ft | 441 kts | 312° |
| 2026-04-23 23:33 | 8.08167 | 151.12917 | 24734 ft | 443 kts | 311° |
| 2026-04-23 23:34 | 8.10209 | 151.10585 | 25098 ft | 445 kts | 311° |
| 2026-04-23 23:34 | 8.12264 | 151.08236 | 25440 ft | 447 kts | 311° |
| 2026-04-23 23:34 | 8.14327 | 151.05879 | 25772 ft | 449 kts | 311° |
| 2026-04-23 23:34 | 8.16401 | 151.03508 | 26099 ft | 452 kts | 311° |
| 2026-04-23 23:35 | 8.18490 | 151.01120 | 26402 ft | 455 kts | 311° |
| 2026-04-23 23:35 | 8.20587 | 150.98724 | 26766 ft | 456 kts | 311° |
| 2026-04-23 23:35 | 8.22687 | 150.96321 | 27103 ft | 458 kts | 311° |
| 2026-04-23 23:35 | 8.24802 | 150.93903 | 27382 ft | 461 kts | 311° |
| 2026-04-23 23:36 | 8.26925 | 150.91474 | 27722 ft | 462 kts | 311° |
| 2026-04-23 23:36 | 8.29057 | 150.89035 | 28027 ft | 464 kts | 311° |
| 2026-04-23 23:36 | 8.31189 | 150.86596 | 28392 ft | 464 kts | 311° |
| 2026-04-23 23:36 | 8.33328 | 150.84147 | 28706 ft | 465 kts | 311° |
| 2026-04-23 23:37 | 8.35473 | 150.81692 | 28966 ft | 468 kts | 311° |
| 2026-04-23 23:37 | 8.37633 | 150.79219 | 29223 ft | 470 kts | 311° |
| 2026-04-23 23:37 | 8.39770 | 150.76771 | 29497 ft | 471 kts | 311° |
| 2026-04-23 23:37 | 8.41942 | 150.74283 | 29776 ft | 473 kts | 311° |
| 2026-04-23 23:38 | 8.44121 | 150.71786 | 30039 ft | 475 kts | 311° |
| 2026-04-23 23:38 | 8.46307 | 150.69282 | 30249 ft | 476 kts | 311° |
| 2026-04-23 23:38 | 8.48502 | 150.66766 | 30474 ft | 478 kts | 311° |
| 2026-04-23 23:38 | 8.50699 | 150.64248 | 30753 ft | 477 kts | 311° |
| 2026-04-23 23:39 | 8.52889 | 150.61738 | 31092 ft | 476 kts | 310° |
| 2026-04-23 23:39 | 8.55075 | 150.59231 | 31441 ft | 474 kts | 310° |
| 2026-04-23 23:39 | 8.57255 | 150.56731 | 31751 ft | 474 kts | 311° |
| 2026-04-23 23:39 | 8.59432 | 150.54233 | 32087 ft | 473 kts | 310° |
| 2026-04-23 23:40 | 8.61603 | 150.51743 | 32479 ft | 471 kts | 310° |
| 2026-04-23 23:40 | 8.63764 | 150.49263 | 32846 ft | 470 kts | 310° |
| 2026-04-23 23:40 | 8.65924 | 150.46784 | 33174 ft | 470 kts | 310° |
| 2026-04-23 23:40 | 8.68082 | 150.44307 | 33517 ft | 469 kts | 310° |
| 2026-04-23 23:41 | 8.70232 | 150.41838 | 33903 ft | 467 kts | 310° |
| 2026-04-23 23:41 | 8.72377 | 150.39375 | 34222 ft | 467 kts | 310° |
| 2026-04-23 23:41 | 8.74519 | 150.36914 | 34523 ft | 466 kts | 310° |
| 2026-04-23 23:41 | 8.76659 | 150.34457 | 34831 ft | 465 kts | 310° |
| 2026-04-23 23:42 | 8.78794 | 150.32003 | 35144 ft | 464 kts | 310° |
| 2026-04-23 23:42 | 8.80923 | 150.29556 | 35453 ft | 463 kts | 310° |
| 2026-04-23 23:42 | 8.83050 | 150.27112 | 35757 ft | 463 kts | 310° |
| 2026-04-23 23:42 | 8.85174 | 150.24669 | 35954 ft | 464 kts | 310° |
| 2026-04-23 23:43 | 8.87319 | 150.22203 | 35934 ft | 468 kts | 309° |
| 2026-04-23 23:43 | 8.91591 | 150.17289 | 35934 ft | 461 kts | 309° |
| 2026-04-23 23:44 | 8.95781 | 150.12469 | 35947 ft | 455 kts | 310° |
| 2026-04-23 23:44 | 8.99962 | 150.07656 | 35950 ft | 456 kts | 309° |
| 2026-04-23 23:45 | 9.04148 | 150.02834 | 35945 ft | 457 kts | 309° |
| 2026-04-23 23:45 | 9.08343 | 149.98001 | 35947 ft | 457 kts | 309° |
| 2026-04-23 23:46 | 9.12546 | 149.93157 | 35949 ft | 458 kts | 309° |
| 2026-04-23 23:46 | 9.16754 | 149.88306 | 35948 ft | 459 kts | 310° |
| 2026-04-23 23:47 | 9.20960 | 149.83455 | 35949 ft | 459 kts | 310° |
| 2026-04-23 23:47 | 9.25140 | 149.78632 | 35949 ft | 458 kts | 310° |
| 2026-04-23 23:48 | 9.29340 | 149.73784 | 35939 ft | 457 kts | 309° |
| 2026-04-23 23:48 | 9.33528 | 149.68948 | 35944 ft | 456 kts | 310° |
| 2026-04-23 23:49 | 9.39796 | 149.61707 | 35951 ft | 455 kts | 310° |
| 2026-04-23 23:49 | 9.43969 | 149.56885 | 35958 ft | 455 kts | 309° |
| 2026-04-23 23:50 | 9.48141 | 149.52060 | 35955 ft | 454 kts | 309° |
| 2026-04-23 23:50 | 9.52301 | 149.47249 | 35948 ft | 453 kts | 309° |
| 2026-04-23 23:51 | 9.56449 | 149.42446 | 35953 ft | 453 kts | 310° |
| 2026-04-23 23:51 | 9.60595 | 149.37646 | 35961 ft | 452 kts | 309° |
| 2026-04-23 23:52 | 9.64710 | 149.32881 | 35949 ft | 452 kts | 309° |
| 2026-04-23 23:52 | 9.68849 | 149.28087 | 35952 ft | 452 kts | 309° |
| 2026-04-23 23:53 | 9.72983 | 149.23294 | 35958 ft | 451 kts | 309° |
| 2026-04-23 23:53 | 9.77116 | 149.18501 | 35945 ft | 451 kts | 309° |
| 2026-04-23 23:54 | 9.81251 | 149.13704 | 35961 ft | 452 kts | 310° |
| 2026-04-23 23:54 | 9.85386 | 149.08908 | 35948 ft | 452 kts | 309° |
| 2026-04-23 23:55 | 9.89520 | 149.04107 | 35951 ft | 452 kts | 310° |
| 2026-04-23 23:55 | 9.93660 | 148.99297 | 35964 ft | 453 kts | 310° |
| 2026-04-23 23:56 | 9.97809 | 148.94476 | 35963 ft | 454 kts | 309° |
| 2026-04-23 23:56 | 10.01961 | 148.89650 | 35952 ft | 454 kts | 309° |
| 2026-04-23 23:57 | 10.06111 | 148.84823 | 35959 ft | 454 kts | 310° |
| 2026-04-23 23:57 | 10.10261 | 148.79995 | 35957 ft | 454 kts | 309° |
| 2026-04-23 23:58 | 10.14409 | 148.75167 | 35958 ft | 453 kts | 309° |
| 2026-04-23 23:58 | 10.17851 | 148.71158 | 35956 ft | 453 kts | 309° |
| 2026-04-23 23:59 | 10.21992 | 148.66335 | 35966 ft | 452 kts | 309° |
| 2026-04-23 23:59 | 10.26123 | 148.61520 | 35948 ft | 452 kts | 309° |
| 2026-04-24 00:00 | 10.30252 | 148.56706 | 35974 ft | 452 kts | 309° |
| 2026-04-24 00:00 | 10.34379 | 148.51892 | 35951 ft | 452 kts | 309° |
| 2026-04-24 00:01 | 10.38507 | 148.47075 | 35956 ft | 452 kts | 309° |
| 2026-04-24 00:01 | 10.42634 | 148.42257 | 35964 ft | 452 kts | 309° |
| 2026-04-24 00:02 | 10.46765 | 148.37432 | 35976 ft | 452 kts | 309° |
| 2026-04-24 00:02 | 10.50897 | 148.32604 | 35972 ft | 453 kts | 309° |
| 2026-04-24 00:03 | 10.55032 | 148.27770 | 35961 ft | 453 kts | 309° |
| 2026-04-24 00:03 | 10.59165 | 148.22936 | 35971 ft | 453 kts | 309° |
| 2026-04-24 00:04 | 10.63294 | 148.18104 | 35960 ft | 453 kts | 308° |
| 2026-04-24 00:04 | 10.67419 | 148.13274 | 35962 ft | 452 kts | 309° |
| 2026-04-24 00:05 | 10.71542 | 148.08445 | 35960 ft | 452 kts | 309° |
| 2026-04-24 00:05 | 10.75529 | 148.03564 | 35976 ft | 451 kts | 306° |
| 2026-04-24 00:06 | 10.79296 | 147.98408 | 35956 ft | 451 kts | 302° |
| 2026-04-24 00:06 | 10.82716 | 147.93121 | 35955 ft | 451 kts | 300° |
| 2026-04-24 00:07 | 10.86106 | 147.87750 | 35958 ft | 451 kts | 301° |
| 2026-04-24 00:07 | 10.89519 | 147.82400 | 35970 ft | 451 kts | 301° |
| 2026-04-24 00:08 | 10.92955 | 147.77058 | 35961 ft | 451 kts | 301° |
| 2026-04-24 00:08 | 10.96397 | 147.71723 | 35966 ft | 451 kts | 301° |
| 2026-04-24 00:09 | 10.99840 | 147.66387 | 35971 ft | 451 kts | 301° |
| 2026-04-24 00:09 | 11.03280 | 147.61050 | 35974 ft | 451 kts | 301° |
| 2026-04-24 00:10 | 11.06717 | 147.55714 | 35978 ft | 450 kts | 301° |
| 2026-04-24 00:10 | 11.10151 | 147.50379 | 35967 ft | 450 kts | 301° |
| 2026-04-24 00:11 | 11.13582 | 147.45046 | 35973 ft | 450 kts | 301° |
| 2026-04-24 00:11 | 11.17013 | 147.39712 | 35968 ft | 450 kts | 301° |
| 2026-04-24 00:12 | 11.20439 | 147.34384 | 35981 ft | 450 kts | 301° |
| 2026-04-24 00:12 | 11.23843 | 147.29085 | 35971 ft | 450 kts | 301° |
| 2026-04-24 00:13 | 11.27263 | 147.23758 | 35965 ft | 449 kts | 301° |
| 2026-04-24 00:13 | 11.30679 | 147.18436 | 35978 ft | 449 kts | 300° |
| 2026-04-24 00:14 | 11.34093 | 147.13115 | 35974 ft | 449 kts | 301° |
| 2026-04-24 00:14 | 11.37508 | 147.07788 | 35978 ft | 449 kts | 301° |
| 2026-04-24 00:15 | 11.40923 | 147.02459 | 35978 ft | 449 kts | 301° |
| 2026-04-24 00:15 | 11.44339 | 146.97124 | 35973 ft | 449 kts | 301° |
| 2026-04-24 00:16 | 11.47756 | 146.91783 | 35979 ft | 450 kts | 301° |
| 2026-04-24 00:16 | 11.51175 | 146.86437 | 35974 ft | 451 kts | 301° |
| 2026-04-24 00:17 | 11.54600 | 146.81083 | 35988 ft | 451 kts | 301° |
| 2026-04-24 00:17 | 11.58030 | 146.75716 | 35978 ft | 452 kts | 301° |
| 2026-04-24 00:18 | 11.61459 | 146.70348 | 35979 ft | 452 kts | 301° |
| 2026-04-24 00:18 | 11.64890 | 146.64976 | 35980 ft | 452 kts | 300° |
| 2026-04-24 00:19 | 11.68316 | 146.59606 | 35982 ft | 452 kts | 301° |
| 2026-04-24 00:19 | 11.71745 | 146.54228 | 35987 ft | 452 kts | 301° |
| 2026-04-24 00:20 | 11.75172 | 146.48850 | 35976 ft | 452 kts | 301° |
| 2026-04-24 00:20 | 11.78577 | 146.43506 | 35973 ft | 452 kts | 300° |
| 2026-04-24 00:21 | 11.82001 | 146.38128 | 35973 ft | 452 kts | 300° |
| 2026-04-24 00:21 | 11.85423 | 146.32750 | 35973 ft | 451 kts | 301° |
| 2026-04-24 00:22 | 11.88840 | 146.27379 | 35980 ft | 451 kts | 300° |
| 2026-04-24 00:22 | 11.92259 | 146.22002 | 35989 ft | 451 kts | 301° |
| 2026-04-24 00:23 | 11.95677 | 146.16624 | 35985 ft | 451 kts | 300° |
| 2026-04-24 00:23 | 11.99091 | 146.11245 | 35982 ft | 451 kts | 300° |
| 2026-04-24 00:24 | 12.02503 | 146.05869 | 35979 ft | 451 kts | 301° |
| 2026-04-24 00:24 | 12.05919 | 146.00484 | 35994 ft | 452 kts | 300° |
| 2026-04-24 00:25 | 12.09334 | 145.95094 | 35986 ft | 452 kts | 300° |
| 2026-04-24 00:25 | 12.12758 | 145.89690 | 35631 ft | 457 kts | 300° |
| 2026-04-24 00:26 | 12.14484 | 145.86961 | 35049 ft | 457 kts | 300° |
| 2026-04-24 00:26 | 12.16213 | 145.84229 | 34401 ft | 457 kts | 300° |
| 2026-04-24 00:26 | 12.17939 | 145.81498 | 33647 ft | 460 kts | 301° |
| 2026-04-24 00:26 | 12.19678 | 145.78748 | 32871 ft | 461 kts | 301° |
| 2026-04-24 00:27 | 12.21424 | 145.75991 | 32111 ft | 462 kts | 301° |
| 2026-04-24 00:27 | 12.23167 | 145.73238 | 31524 ft | 459 kts | 301° |
| 2026-04-24 00:27 | 12.24896 | 145.70508 | 30962 ft | 456 kts | 302° |
| 2026-04-24 00:27 | 12.26586 | 145.67835 | 30455 ft | 452 kts | 301° |
| 2026-04-24 00:28 | 12.28283 | 145.65149 | 29881 ft | 449 kts | 301° |
| 2026-04-24 00:28 | 12.29968 | 145.62481 | 29271 ft | 444 kts | 302° |
| 2026-04-24 00:28 | 12.31634 | 145.59841 | 28710 ft | 440 kts | 301° |
| 2026-04-24 00:28 | 12.33285 | 145.57226 | 28162 ft | 435 kts | 302° |
| 2026-04-24 00:29 | 12.34919 | 145.54636 | 27626 ft | 431 kts | 302° |
| 2026-04-24 00:29 | 12.36537 | 145.52072 | 27097 ft | 427 kts | 302° |
| 2026-04-24 00:29 | 12.38138 | 145.49533 | 26569 ft | 423 kts | 302° |
| 2026-04-24 00:29 | 12.39728 | 145.47013 | 26059 ft | 420 kts | 302° |
| 2026-04-24 00:30 | 12.41306 | 145.44509 | 25511 ft | 418 kts | 302° |
| 2026-04-24 00:30 | 12.42874 | 145.42021 | 25003 ft | 415 kts | 302° |
| 2026-04-24 00:30 | 12.44435 | 145.39543 | 24472 ft | 412 kts | 303° |
| 2026-04-24 00:30 | 12.45984 | 145.37083 | 23948 ft | 410 kts | 303° |
| 2026-04-24 00:31 | 12.47524 | 145.34638 | 23402 ft | 408 kts | 303° |
| 2026-04-24 00:31 | 12.49058 | 145.32202 | 22813 ft | 406 kts | 303° |
| 2026-04-24 00:31 | 12.50579 | 145.29785 | 22273 ft | 402 kts | 303° |
| 2026-04-24 00:31 | 12.52088 | 145.27387 | 21760 ft | 399 kts | 303° |
| 2026-04-24 00:32 | 12.53587 | 145.25006 | 21252 ft | 396 kts | 303° |
| 2026-04-24 00:32 | 12.55069 | 145.22649 | 20753 ft | 393 kts | 303° |
| 2026-04-24 00:32 | 12.56541 | 145.20308 | 20249 ft | 390 kts | 302° |
| 2026-04-24 00:32 | 12.58005 | 145.17980 | 19750 ft | 388 kts | 302° |
| 2026-04-24 00:33 | 12.59460 | 145.15664 | 19248 ft | 386 kts | 302° |
| 2026-04-24 00:33 | 12.60909 | 145.13357 | 18757 ft | 384 kts | 302° |
| 2026-04-24 00:33 | 12.62352 | 145.11060 | 18246 ft | 383 kts | 302° |
| 2026-04-24 00:33 | 12.63789 | 145.08772 | 17690 ft | 381 kts | 302° |
| 2026-04-24 00:34 | 12.65215 | 145.06501 | 17184 ft | 378 kts | 302° |
| 2026-04-24 00:34 | 12.66629 | 145.04248 | 16692 ft | 375 kts | 302° |
| 2026-04-24 00:34 | 12.68032 | 145.02011 | 16208 ft | 372 kts | 302° |
| 2026-04-24 00:34 | 12.69425 | 144.99790 | 15729 ft | 369 kts | 303° |
| 2026-04-24 00:35 | 12.70810 | 144.97582 | 15204 ft | 368 kts | 303° |
| 2026-04-24 00:35 | 12.72192 | 144.95378 | 14700 ft | 367 kts | 303° |
| 2026-04-24 00:35 | 12.73571 | 144.93178 | 14207 ft | 366 kts | 303° |
| 2026-04-24 00:35 | 12.74941 | 144.90992 | 13716 ft | 364 kts | 303° |
| 2026-04-24 00:36 | 12.76306 | 144.88813 | 13195 ft | 363 kts | 303° |
| 2026-04-24 00:36 | 12.77645 | 144.86675 | 12729 ft | 360 kts | 303° |
| 2026-04-24 00:36 | 12.79145 | 144.84607 | 12222 ft | 356 kts | 319° |
| 2026-04-24 00:36 | 12.81138 | 144.83229 | 11800 ft | 348 kts | 338° |
| 2026-04-24 00:37 | 12.83366 | 144.82309 | 11377 ft | 344 kts | 343° |
| 2026-04-24 00:37 | 12.85601 | 144.81457 | 10925 ft | 342 kts | 342° |
| 2026-04-24 00:37 | 12.87823 | 144.80624 | 10498 ft | 340 kts | 342° |
| 2026-04-24 00:37 | 12.90006 | 144.79799 | 10333 ft | 329 kts | 342° |
| 2026-04-24 00:38 | 12.92122 | 144.78991 | 10182 ft | 319 kts | 343° |
| 2026-04-24 00:38 | 12.94166 | 144.78203 | 10048 ft | 309 kts | 342° |
| 2026-04-24 00:38 | 12.96149 | 144.77435 | 9859 ft | 302 kts | 343° |
| 2026-04-24 00:38 | 12.98110 | 144.76675 | 9515 ft | 300 kts | 343° |
| 2026-04-24 00:39 | 13.00056 | 144.75919 | 9195 ft | 298 kts | 343° |
| 2026-04-24 00:39 | 13.01989 | 144.75167 | 8864 ft | 297 kts | 343° |
| 2026-04-24 00:39 | 13.03916 | 144.74418 | 8538 ft | 295 kts | 343° |
| 2026-04-24 00:39 | 13.05829 | 144.73672 | 8216 ft | 294 kts | 344° |
| 2026-04-24 00:40 | 13.07736 | 144.72929 | 7892 ft | 293 kts | 343° |
| 2026-04-24 00:40 | 13.09634 | 144.72189 | 7574 ft | 292 kts | 342° |
| 2026-04-24 00:40 | 13.11526 | 144.71450 | 7256 ft | 291 kts | 342° |
| 2026-04-24 00:40 | 13.13414 | 144.70712 | 6930 ft | 291 kts | 343° |
| 2026-04-24 00:41 | 13.15306 | 144.69974 | 6591 ft | 291 kts | 342° |
| 2026-04-24 00:41 | 13.17198 | 144.69235 | 6248 ft | 291 kts | 342° |
| 2026-04-24 00:41 | 13.19084 | 144.68498 | 5929 ft | 289 kts | 343° |
| 2026-04-24 00:41 | 13.20962 | 144.67764 | 5607 ft | 288 kts | 343° |
| 2026-04-24 00:42 | 13.22830 | 144.67035 | 5306 ft | 287 kts | 342° |
| 2026-04-24 00:42 | 13.24682 | 144.66290 | 4985 ft | 287 kts | 340° |
| 2026-04-24 00:42 | 13.26506 | 144.65432 | 4608 ft | 289 kts | 338° |
| 2026-04-24 00:42 | 13.28314 | 144.64548 | 4290 ft | 287 kts | 338° |
| 2026-04-24 00:43 | 13.30094 | 144.63683 | 4160 ft | 278 kts | 338° |
| 2026-04-24 00:43 | 13.31821 | 144.62851 | 4026 ft | 270 kts | 339° |
| 2026-04-24 00:43 | 13.33494 | 144.62050 | 3916 ft | 261 kts | 339° |
| 2026-04-24 00:43 | 13.35105 | 144.61280 | 3842 ft | 248 kts | 339° |
| 2026-04-24 00:44 | 13.36629 | 144.60560 | 3744 ft | 233 kts | 344° |
| 2026-04-24 00:44 | 13.38162 | 144.60383 | 3644 ft | 216 kts | 18° |
| 2026-04-24 00:44 | 13.39469 | 144.61016 | 3596 ft | 204 kts | 40° |
| 2026-04-24 00:44 | 13.40417 | 144.62080 | 3472 ft | 204 kts | 61° |
| 2026-04-24 00:45 | 13.41026 | 144.63363 | 3257 ft | 196 kts | 66° |
| 2026-04-24 00:45 | 13.41587 | 144.64602 | 3030 ft | 187 kts | 66° |
| 2026-04-24 00:45 | 13.42123 | 144.65781 | 2845 ft | 178 kts | 65° |
| 2026-04-24 00:45 | 13.42641 | 144.66914 | 2624 ft | 172 kts | 66° |
| 2026-04-24 00:46 | 13.43136 | 144.67997 | 2407 ft | 163 kts | 66° |
| 2026-04-24 00:46 | 13.43451 | 144.68685 | 2277 ft | 157 kts | 65° |
| 2026-04-24 00:46 | 13.43909 | 144.69689 | 2095 ft | 156 kts | 64° |
| 2026-04-24 00:46 | 13.44381 | 144.70723 | 1877 ft | 161 kts | 65° |
| 2026-04-24 00:47 | 13.44844 | 144.71717 | 1671 ft | 140 kts | 62° |
| 2026-04-24 00:47 | 13.45266 | 144.72611 | 1513 ft | 139 kts | 67° |
| 2026-04-24 00:47 | 13.45670 | 144.73509 | 1332 ft | 139 kts | 67° |
| 2026-04-24 00:47 | 13.46207 | 144.74688 | 1047 ft | 136 kts | 66° |
| 2026-04-24 00:48 | 13.46481 | 144.75289 | 940 ft | 137 kts | 66° |
| 2026-04-24 00:48 | 13.46890 | 144.76185 | 766 ft | 141 kts | 66° |
| 2026-04-24 00:48 | 13.47304 | 144.77094 | 592 ft | 141 kts | 66° |
| 2026-04-24 00:48 | 13.47721 | 144.78015 | 384 ft | 145 kts | 65° |
| 2026-04-24 00:49 | 13.48134 | 144.78926 | 274 ft | 131 kts | 66° |
| 2026-04-24 00:49 | 13.48467 | 144.79652 | 283 ft | 89 kts | 65° |
| 2026-04-24 00:49 | 13.48696 | 144.80155 | 293 ft | 68 kts | 65° |
| 2026-04-24 00:49 | 13.48842 | 144.80475 | 295 ft | 25 kts | 65° |
| 2026-04-24 00:50 | 13.48914 | 144.80635 | 297 ft | 24 kts | 65° |
| 2026-04-24 00:50 | 13.48983 | 144.80783 | 295 ft | 23 kts | 64° |
| 2026-04-24 00:50 | 13.49065 | 144.80911 | 298 ft | 20 kts | 32° |
| 2026-04-24 00:50 | 13.49187 | 144.80977 | 298 ft | 19 kts | 26° |
| 2026-04-24 00:51 | 13.49305 | 144.81033 | 299 ft | 18 kts | 23° |
| 2026-04-24 00:51 | 13.49414 | 144.81027 | 299 ft | 15 kts | 329° |
| 2026-04-24 00:51 | 13.49502 | 144.80977 | 299 ft | 14 kts | 332° |
| 2026-04-24 00:51 | 13.49547 | 144.80905 | 296 ft | 12 kts | 254° |
| 2026-04-24 00:52 | 13.49505 | 144.80850 | 298 ft | 7 kts | 180° |
| 2026-04-24 00:52 | 13.49463 | 144.80858 | 296 ft | 3 kts | 166° |
| 2026-04-24 00:52 | 13.49452 | 144.80861 | 298 ft | 0 kts | 160° |